Terminal Aerodrome Forecast
Issued by NWS

Home | Current Version | Previous Version | Text Only | Print | Product List | Glossary On
Versions: 1 2 3 4 5 6 7 8 9 10 11 12 13 14 15 16 17 18 19 20 21 22 23 24 25
000
FTUS45 KGJT 181131
TAFDRO
TAF
KDRO 181131Z 1812/1912 VRB04KT P6SM FEW200
     FM181400 09005KT P6SM SKC
     FM182000 27008KT P6SM SCT100
     FM190200 32005KT P6SM FEW110 SCT200=

USA.gov is the U.S. government's official web portal to all federal, state and local government web resources and services.